메인 페이지
METAR-TAF:

METAR-TAF

공항 :

Al Jawf, 사우디아라비아

위도: 29-47N, 경도: 040-06E, 고도: 689m

현재 날씨관측

예보는 37분 전, 07:00시(UTC)에 발표되었습니다.
5kt
온도 30°C
습도 15%
기압 1018 hPa
시정 10km 이상
1500m 미만 상공 구름 및 적란운 없음

METAR: OESK 040700Z 01005KT CAVOK 30/01 Q1018

시각: 10:37 (07:37 UTC)

예보

예보는 8 시간 37분 전, 23:00시(UTC)에 발표되었습니다.
예보 대상 시간: 04일 00시부터 05일 06시까지 (UTC)
여러 방향의 바람 3kt
시정 10km 이상
1500m 미만 상공 구름 및 적란운 없음
전환 중
04일 06시부터 04일 08시까지 (UTC)
북북서6kt

TAF: OESK 032300Z 0400/0506 VRB03KT CAVOK BECMG 0406/0408 33006KT

4,000개 이상의 공항 관측 자료 및 예보 (METAR 및 TAF 보고).

지도상에서 검색 가능한 기상관측소가 노란 점과 빨간 점으로 표시되어 있습니다.

기상관측소 명을 보려면 표시 위로 마우스를 이동하세요.

날씨 관측과 예보를 보려면 클릭하세요.

지도 변경 : 확대하려면 엑스 표시가 있는 녹색 버튼, 축소하려면 빼기 표시가 있는 녹색 버튼, 다음 페이지의 지도를 보려면 녹색 화살표를 클릭하세요.


METAR-TAF: